createdAt,value
2022-12-09T04:57:04.920Z,20.75
2022-12-09T04:59:32.443Z,20.17
2022-12-09T05:01:59.490Z,19.52
2022-12-09T05:04:26.450Z,18.60
2022-12-09T05:06:53.565Z,20.45
2022-12-09T05:09:20.452Z,21.95
2022-12-09T05:11:47.959Z,21.27
2022-12-09T05:14:15.336Z,19.80
2022-12-09T05:16:42.103Z,21.30
2022-12-09T05:19:09.256Z,22.70
2022-12-09T05:21:36.944Z,21.88
2022-12-09T05:24:03.974Z,18.15
2022-12-09T05:26:30.715Z,18.55
2022-12-09T05:28:57.423Z,20.65
2022-12-09T05:31:24.537Z,19.05
2022-12-09T05:33:52.442Z,18.65
2022-12-09T05:36:24.293Z,21.05
2022-12-09T05:38:52.031Z,18.67
2022-12-09T05:41:19.774Z,21.83
2022-12-09T05:43:47.276Z,21.67
2022-12-09T05:46:15.750Z,24.67
2022-12-09T05:48:42.781Z,20.00
2022-12-09T05:51:24.616Z,22.17
2022-12-09T05:53:51.734Z,23.15
2022-12-09T05:56:20.580Z,20.00
2022-12-09T05:58:47.732Z,21.67
2022-12-09T06:01:15.679Z,23.23
2022-12-09T06:03:42.868Z,19.63
2022-12-09T06:06:12.617Z,22.35
2022-12-09T06:08:41.307Z,24.02
2022-12-09T06:11:27.201Z,24.05
2022-12-09T06:13:54.816Z,24.77
2022-12-09T06:16:22.837Z,22.17
2022-12-09T06:18:50.743Z,25.38
2022-12-09T06:21:19.838Z,24.23
2022-12-09T06:23:47.625Z,20.92
2022-12-09T06:26:26.330Z,23.27
2022-12-09T06:28:54.340Z,19.80
2022-12-09T06:31:22.005Z,25.08
2022-12-09T06:33:57.923Z,26.88
2022-12-09T06:36:27.339Z,25.17
2022-12-09T06:38:56.623Z,25.00
2022-12-09T06:41:23.925Z,29.77
2022-12-09T06:43:50.818Z,29.88
2022-12-09T06:46:21.181Z,27.00
2022-12-09T06:48:48.285Z,27.23
2022-12-09T06:51:16.360Z,27.13
2022-12-09T06:53:43.692Z,27.88
2022-12-09T06:56:13.308Z,27.70
2022-12-09T06:58:42.109Z,24.00
2022-12-09T07:01:17.569Z,27.70
2022-12-09T07:03:48.422Z,24.70
2022-12-09T07:06:37.661Z,23.58
2022-12-09T07:09:10.598Z,23.20
2022-12-09T07:11:38.505Z,26.10
2022-12-09T07:14:06.050Z,26.58
2022-12-09T07:16:33.090Z,27.42
2022-12-09T07:19:00.570Z,27.13
2022-12-09T07:21:28.487Z,26.25
2022-12-09T07:23:55.516Z,27.30
2022-12-09T07:26:22.313Z,24.58
2022-12-09T07:28:50.533Z,26.10
2022-12-09T07:31:29.399Z,23.83
2022-12-09T07:33:58.820Z,22.88
2022-12-09T07:36:28.750Z,25.17
2022-12-09T07:39:01.584Z,28.30
2022-12-09T07:41:29.000Z,30.75
2022-12-09T07:43:56.531Z,26.90
2022-12-09T07:46:25.926Z,27.45
2022-12-09T07:48:53.624Z,24.88
2022-12-09T07:51:21.041Z,24.65
2022-12-09T07:53:48.756Z,26.75
2022-12-09T07:56:17.706Z,22.08
2022-12-09T07:58:47.783Z,23.88
2022-12-09T08:01:18.039Z,28.10
2022-12-09T08:06:14.515Z,27.70
2022-12-09T08:08:43.036Z,25.93
2022-12-09T08:11:25.449Z,26.20
2022-12-09T08:13:53.366Z,30.77
2022-12-09T08:16:21.917Z,24.58
2022-12-09T08:18:50.635Z,27.17
2022-12-09T08:21:23.536Z,24.75
2022-12-09T08:23:51.442Z,25.65
2022-12-09T08:26:21.418Z,25.85
2022-12-09T08:31:18.737Z,33.78
2022-12-09T08:33:46.551Z,27.00
2022-12-09T08:36:17.295Z,32.90
2022-12-09T08:38:44.364Z,26.02
2022-12-09T08:41:19.474Z,28.40
2022-12-09T08:43:46.931Z,26.70
2022-12-09T08:46:14.595Z,29.48
2022-12-09T08:48:42.600Z,28.35
2022-12-09T08:51:12.318Z,26.38
2022-12-09T08:53:39.877Z,28.00
2022-12-09T08:56:15.498Z,29.35
2022-12-09T08:58:43.204Z,26.90
2022-12-09T09:01:18.781Z,27.40
2022-12-09T09:03:47.036Z,24.95
2022-12-09T09:06:15.248Z,24.05
2022-12-09T09:08:42.685Z,27.30
2022-12-09T09:11:16.803Z,25.38
2022-12-09T09:13:45.950Z,21.52
2022-12-09T09:16:15.764Z,23.02
2022-12-09T09:18:43.744Z,26.52
2022-12-09T09:21:13.129Z,26.20
2022-12-09T09:23:40.764Z,26.40
2022-12-09T09:26:18.727Z,24.80
2022-12-09T09:28:47.273Z,27.02
2022-12-09T09:31:16.766Z,29.52
2022-12-09T09:33:43.989Z,28.98
2022-12-09T09:36:21.051Z,29.13
2022-12-09T09:38:49.449Z,26.55
2022-12-09T09:41:19.555Z,27.00
2022-12-09T09:43:46.633Z,26.92
2022-12-09T09:46:20.890Z,24.40
2022-12-09T09:48:49.726Z,25.73
2022-12-09T09:51:19.220Z,25.92
2022-12-09T09:53:50.501Z,29.17
2022-12-09T09:56:31.376Z,25.70
2022-12-09T09:59:20.590Z,32.00
2022-12-09T10:02:06.658Z,27.97
2022-12-09T10:04:59.194Z,29.08
2022-12-09T10:07:40.125Z,31.42
2022-12-09T10:10:29.497Z,32.58
2022-12-09T10:13:09.395Z,28.75
2022-12-09T10:15:54.920Z,27.95
2022-12-09T10:18:31.260Z,24.00
2022-12-09T10:20:58.851Z,22.98
2022-12-09T10:23:34.087Z,29.67
2022-12-09T10:26:06.135Z,23.88
2022-12-09T10:28:37.234Z,26.30
2022-12-09T10:31:04.280Z,26.45
2022-12-09T10:33:37.256Z,25.25
2022-12-09T10:36:05.731Z,26.40
2022-12-09T10:38:38.326Z,25.17
2022-12-09T10:41:16.609Z,33.58
2022-12-09T10:43:44.404Z,30.48
2022-12-09T10:46:18.401Z,29.85
2022-12-09T10:48:49.360Z,26.73
2022-12-09T10:51:24.025Z,28.45
2022-12-09T10:53:50.985Z,26.15
2022-12-09T10:56:32.491Z,26.30
2022-12-09T10:59:09.731Z,22.90
2022-12-09T11:01:51.773Z,25.13
2022-12-09T11:04:26.604Z,26.60
2022-12-09T11:06:59.797Z,23.40
2022-12-09T11:09:33.661Z,26.08
2022-12-09T11:12:02.424Z,25.27
2022-12-09T11:14:39.142Z,20.63
2022-12-09T11:17:21.782Z,23.15
2022-12-09T11:19:54.280Z,21.27
2022-12-09T11:22:40.254Z,22.67
2022-12-09T11:25:24.288Z,22.00
2022-12-09T11:27:56.198Z,20.67
2022-12-09T11:30:27.029Z,19.40
2022-12-09T11:33:01.109Z,21.30
2022-12-09T11:35:31.290Z,20.63
2022-12-09T11:40:29.414Z,17.63
2022-12-09T11:42:57.023Z,20.17
2022-12-09T11:45:33.686Z,19.73
2022-12-09T11:48:32.544Z,21.50
2022-12-09T11:50:55.677Z,19.52
2022-12-09T11:53:31.958Z,24.08
2022-12-09T11:56:18.333Z,20.02
2022-12-09T11:58:57.722Z,21.95
2022-12-09T12:01:46.336Z,19.67
2022-12-09T12:04:17.556Z,20.35
2022-12-09T12:07:01.561Z,16.80
2022-12-09T12:09:37.663Z,17.25
2022-12-09T12:12:24.573Z,20.08
2022-12-09T12:14:51.265Z,17.88
2022-12-09T12:17:36.313Z,16.50
2022-12-09T12:20:05.094Z,19.15
2022-12-09T12:22:56.488Z,20.48
2022-12-09T12:25:37.072Z,20.58
2022-12-09T12:28:12.565Z,18.95
2022-12-09T12:31:02.432Z,20.52
2022-12-09T12:34:07.683Z,19.13
2022-12-09T12:36:49.207Z,18.35
2022-12-09T12:39:24.898Z,19.42
2022-12-09T12:41:57.813Z,22.40
2022-12-09T12:44:57.626Z,20.00
2022-12-09T12:47:55.960Z,18.73
2022-12-09T12:50:44.623Z,17.08
2022-12-09T12:53:30.706Z,18.40
2022-12-09T12:56:07.178Z,16.95
2022-12-09T12:58:45.714Z,24.05
2022-12-09T13:01:30.582Z,35.38
2022-12-09T13:04:20.552Z,21.48
2022-12-09T13:06:51.161Z,18.67
2022-12-09T13:09:26.730Z,20.90
2022-12-09T13:12:05.712Z,24.92
2022-12-09T13:14:53.517Z,20.70
2022-12-09T13:17:26.945Z,21.90
2022-12-09T13:19:58.341Z,25.63
2022-12-09T13:22:33.938Z,23.92
2022-12-09T13:25:15.043Z,21.75
2022-12-09T13:27:52.454Z,23.73
2022-12-09T13:30:27.001Z,19.63
2022-12-09T13:33:22.168Z,18.83
2022-12-09T13:36:24.152Z,19.95
2022-12-09T13:38:50.846Z,20.30
2022-12-09T13:41:26.426Z,22.55
2022-12-09T13:44:05.198Z,21.17
2022-12-09T13:46:33.363Z,24.50
2022-12-09T13:49:10.202Z,23.42
2022-12-09T13:51:51.410Z,23.42
2022-12-09T13:54:21.842Z,23.45
2022-12-09T13:57:30.272Z,20.58
2022-12-09T14:00:03.077Z,21.88
2022-12-09T14:02:42.611Z,20.42
2022-12-09T14:05:18.457Z,22.23
2022-12-09T14:08:01.582Z,25.35
2022-12-09T14:10:40.974Z,20.58
2022-12-09T14:13:32.125Z,23.70
2022-12-09T14:16:26.163Z,24.50
2022-12-09T14:18:52.950Z,27.90
2022-12-09T14:21:19.565Z,26.17
2022-12-09T14:24:08.191Z,25.50
2022-12-09T14:26:39.148Z,26.45
2022-12-09T14:29:05.862Z,25.10
2022-12-09T14:31:55.496Z,26.13
2022-12-09T14:34:39.059Z,27.25
2022-12-09T14:37:17.171Z,25.80
2022-12-09T14:39:49.523Z,27.70
2022-12-09T14:42:43.330Z,31.17
2022-12-09T14:45:28.117Z,25.23
2022-12-09T14:47:56.118Z,24.67
2022-12-09T14:50:25.043Z,26.60
2022-12-09T14:52:58.248Z,26.98
2022-12-09T14:55:26.582Z,30.60
2022-12-09T14:57:55.379Z,33.65
2022-12-09T15:00:33.450Z,31.80
2022-12-09T15:06:00.603Z,28.92
2022-12-09T15:08:32.005Z,32.25
2022-12-09T15:11:01.231Z,33.40
2022-12-09T15:13:28.425Z,33.63
2022-12-09T15:15:55.386Z,34.10
2022-12-09T15:18:25.064Z,35.35
2022-12-09T15:20:57.532Z,36.85
2022-12-09T15:23:40.591Z,41.97
2022-12-09T15:26:17.708Z,42.90
2022-12-09T15:28:48.994Z,37.83
2022-12-09T15:31:21.856Z,40.17
2022-12-09T15:33:53.880Z,31.85
2022-12-09T15:36:23.253Z,33.70
2022-12-09T15:39:15.211Z,33.53
2022-12-09T15:42:07.594Z,35.72
2022-12-09T15:44:53.335Z,32.35
2022-12-09T15:47:24.515Z,34.33
2022-12-09T15:50:03.347Z,36.58
2022-12-09T15:52:38.117Z,31.45
2022-12-09T15:55:11.274Z,35.60
2022-12-09T15:57:39.304Z,36.90
2022-12-09T16:00:07.890Z,32.72
2022-12-09T16:02:37.848Z,35.30
2022-12-09T16:05:07.260Z,35.40
2022-12-09T16:07:34.376Z,33.15
2022-12-09T16:10:15.291Z,28.08
2022-12-09T16:12:43.520Z,32.28
2022-12-09T16:15:13.493Z,33.67
2022-12-09T16:17:55.297Z,32.38
2022-12-09T16:20:32.936Z,30.45
2022-12-09T16:23:01.304Z,34.78
2022-12-09T16:25:34.641Z,30.83
2022-12-09T16:28:04.147Z,36.90
2022-12-09T16:30:43.035Z,35.97
2022-12-09T16:33:19.951Z,36.35
2022-12-09T16:36:02.125Z,38.25
2022-12-09T16:38:30.376Z,33.33
2022-12-09T16:41:00.140Z,40.58
2022-12-09T16:43:28.693Z,31.92
2022-12-09T16:46:01.471Z,32.95
2022-12-09T16:48:29.867Z,33.58
2022-12-09T16:51:17.226Z,31.60
2022-12-09T16:53:49.939Z,34.05
2022-12-09T16:56:25.371Z,33.45
2022-12-09T16:58:53.156Z,31.05
2022-12-09T17:01:22.480Z,31.95
2022-12-09T17:03:57.920Z,35.53
2022-12-09T17:06:24.795Z,32.65
2022-12-09T17:08:51.453Z,35.92
2022-12-09T17:11:18.814Z,34.90
2022-12-09T17:13:45.434Z,29.90
2022-12-09T17:16:12.218Z,36.75
2022-12-09T17:18:39.754Z,33.92
2022-12-09T17:21:13.991Z,33.08
2022-12-09T17:23:41.313Z,35.85
2022-12-09T17:26:11.150Z,35.75
2022-12-09T17:28:38.706Z,36.45
2022-12-09T17:31:11.922Z,37.88
2022-12-09T17:33:38.804Z,42.70
2022-12-09T17:36:07.325Z,38.58
2022-12-09T17:38:34.455Z,41.75
2022-12-09T17:41:05.964Z,46.05
2022-12-09T17:43:33.394Z,46.70
2022-12-09T17:46:04.911Z,41.05
2022-12-09T17:48:33.063Z,36.78
2022-12-09T17:51:04.537Z,42.10
2022-12-09T17:53:31.173Z,40.72
2022-12-09T17:55:57.791Z,42.17
2022-12-09T17:58:24.454Z,41.85
2022-12-09T18:00:51.152Z,40.90
2022-12-09T18:03:27.511Z,41.60
2022-12-09T18:06:04.475Z,41.25
2022-12-09T18:08:31.191Z,41.63
2022-12-09T18:11:03.384Z,41.45
2022-12-09T18:13:30.410Z,38.25
2022-12-09T18:15:57.279Z,42.00
2022-12-09T18:18:23.969Z,41.53
2022-12-09T18:20:50.640Z,41.00
2022-12-09T18:23:17.271Z,42.97
2022-12-09T18:25:43.898Z,48.30
2022-12-09T18:28:10.553Z,42.78
2022-12-09T18:30:38.745Z,48.03
2022-12-09T18:33:05.709Z,39.58
2022-12-09T18:35:32.545Z,42.95
2022-12-09T18:38:06.058Z,40.47
2022-12-09T18:41:01.093Z,42.30
2022-12-09T18:46:07.554Z,41.20
2022-12-09T18:48:34.711Z,42.97
2022-12-09T18:51:01.416Z,45.53
2022-12-09T18:53:28.098Z,45.45
2022-12-09T18:55:54.768Z,44.35
2022-12-09T18:58:42.508Z,39.65
2022-12-09T19:01:20.879Z,43.55
2022-12-09T19:03:48.228Z,38.20
2022-12-09T19:06:20.916Z,39.25
2022-12-09T19:08:48.518Z,36.15
2022-12-09T19:11:15.529Z,40.92
2022-12-09T19:13:42.163Z,43.30
2022-12-09T19:16:08.912Z,37.78
2022-12-09T19:18:36.179Z,37.92
2022-12-09T19:21:15.594Z,37.15
2022-12-09T19:23:44.258Z,38.35
2022-12-09T19:26:15.992Z,38.25
2022-12-09T19:28:48.140Z,41.15
2022-12-09T19:31:21.996Z,37.45
2022-12-09T19:33:48.984Z,46.28
2022-12-09T19:36:15.834Z,34.97
2022-12-09T19:38:42.706Z,41.65
2022-12-09T19:41:09.521Z,37.53
2022-12-09T19:43:36.539Z,41.00
2022-12-09T19:46:08.563Z,35.53
2022-12-09T19:48:37.292Z,46.45
2022-12-09T19:51:11.467Z,40.80
2022-12-09T19:53:39.123Z,42.38
2022-12-09T19:56:08.889Z,35.00
2022-12-09T19:58:37.405Z,38.33
2022-12-09T20:01:19.818Z,39.22
2022-12-09T20:03:49.433Z,37.80
2022-12-09T20:06:19.123Z,35.40
2022-12-09T20:08:46.827Z,38.28
2022-12-09T20:11:15.748Z,41.65
2022-12-09T20:13:42.760Z,43.20
2022-12-09T20:16:12.133Z,39.13
2022-12-09T20:18:38.998Z,36.13
2022-12-09T20:21:08.214Z,38.75
2022-12-09T20:23:36.440Z,38.73
2022-12-09T20:26:15.108Z,38.85
2022-12-09T20:28:43.782Z,38.97
2022-12-09T20:31:13.587Z,41.92
2022-12-09T20:33:40.677Z,40.47
2022-12-09T20:36:09.742Z,40.90
2022-12-09T20:38:36.788Z,46.88
2022-12-09T20:41:09.774Z,38.58
2022-12-09T20:43:40.497Z,38.63
2022-12-09T20:46:09.505Z,38.53
2022-12-09T20:48:37.640Z,41.15
2022-12-09T20:51:10.340Z,38.35
2022-12-09T20:53:37.064Z,43.78
2022-12-09T20:56:04.569Z,41.33
2022-12-09T20:58:31.294Z,38.85
2022-12-09T21:01:08.023Z,38.45
2022-12-09T21:03:35.124Z,39.53
2022-12-09T21:06:01.972Z,36.47
2022-12-09T21:08:31.723Z,37.70
2022-12-09T21:13:40.813Z,43.78
2022-12-09T21:16:22.160Z,39.78
2022-12-09T21:18:50.303Z,37.08
2022-12-09T21:21:18.587Z,37.65
2022-12-09T21:23:45.655Z,38.40
2022-12-09T21:26:15.941Z,39.42
2022-12-09T21:28:44.278Z,41.60
2022-12-09T21:31:13.633Z,41.42
2022-12-09T21:33:41.668Z,38.25
2022-12-09T21:36:11.622Z,40.13
2022-12-09T21:38:38.816Z,42.00
2022-12-09T21:41:09.276Z,42.72
2022-12-09T21:43:36.802Z,43.97
2022-12-09T21:46:11.744Z,39.70
2022-12-09T21:48:39.212Z,44.63
2022-12-09T21:51:06.290Z,42.42
2022-12-09T21:53:33.172Z,43.50
2022-12-09T21:56:05.277Z,39.65
2022-12-09T21:58:33.286Z,43.85
2022-12-09T22:01:02.800Z,43.83
2022-12-09T22:03:29.528Z,41.83
2022-12-09T22:05:59.602Z,42.13
2022-12-09T22:08:26.523Z,42.60
2022-12-09T22:10:53.700Z,39.33
2022-12-09T22:13:20.440Z,43.25
2022-12-09T22:15:47.072Z,43.80
2022-12-09T22:18:13.723Z,37.45
2022-12-09T22:23:27.268Z,36.45
2022-12-09T22:25:53.909Z,39.83
2022-12-09T22:28:20.601Z,41.05
2022-12-09T22:30:47.280Z,46.10
2022-12-09T22:33:13.968Z,37.40
2022-12-09T22:35:40.656Z,38.67
2022-12-09T22:38:14.171Z,36.50
2022-12-09T22:40:41.563Z,40.40
2022-12-09T22:43:08.309Z,46.67
2022-12-09T22:45:35.886Z,38.47
2022-12-09T22:48:03.417Z,41.72
2022-12-09T22:50:30.056Z,38.85
2022-12-09T22:52:56.709Z,37.08
2022-12-09T22:55:23.345Z,45.50
2022-12-09T22:57:51.756Z,38.83
2022-12-09T23:00:18.691Z,43.53
2022-12-09T23:02:45.500Z,43.90
2022-12-09T23:05:12.246Z,44.30
2022-12-09T23:07:38.970Z,42.55
2022-12-09T23:10:06.334Z,40.60
2022-12-09T23:12:33.279Z,42.35
2022-12-09T23:14:59.875Z,41.00
2022-12-09T23:17:26.573Z,40.65
2022-12-09T23:19:53.344Z,39.78
2022-12-09T23:22:19.962Z,43.22
2022-12-09T23:24:47.839Z,42.53
2022-12-09T23:27:14.468Z,39.28
2022-12-09T23:29:41.087Z,45.75
2022-12-09T23:32:07.724Z,46.70
2022-12-09T23:34:34.365Z,43.95
2022-12-09T23:37:00.956Z,44.22
2022-12-09T23:39:27.606Z,48.25
2022-12-09T23:41:54.699Z,43.00
2022-12-09T23:44:21.338Z,45.85
2022-12-09T23:46:48.180Z,52.90
2022-12-09T23:49:15.692Z,49.65
2022-12-09T23:51:46.321Z,43.75
2022-12-09T23:54:14.607Z,48.90
2022-12-09T23:56:49.720Z,45.65
2022-12-09T23:59:20.969Z,47.10
